sensor_id;sensor_type;location;lat;lon;timestamp;P1;durP1;ratioP1;P2;durP2;ratioP2
14348;SDS011;7258;50.376;8.742;2023-05-29T00:02:01;4.30;;;3.90;;
14348;SDS011;7258;50.376;8.742;2023-05-29T00:04:03;5.50;;;4.30;;
14348;SDS011;7258;50.376;8.742;2023-05-29T00:06:07;8.03;;;4.27;;
14348;SDS011;7258;50.376;8.742;2023-05-29T00:08:10;5.43;;;4.37;;
14348;SDS011;7258;50.376;8.742;2023-05-29T00:10:13;6.23;;;4.00;;
14348;SDS011;7258;50.376;8.742;2023-05-29T00:12:16;6.00;;;4.17;;
14348;SDS011;7258;50.376;8.742;2023-05-29T00:14:20;5.67;;;3.80;;
14348;SDS011;7258;50.376;8.742;2023-05-29T00:16:25;6.13;;;4.00;;
14348;SDS011;7258;50.376;8.742;2023-05-29T00:18:28;7.37;;;4.20;;
14348;SDS011;7258;50.376;8.742;2023-05-29T00:20:31;7.57;;;4.90;;
14348;SDS011;7258;50.376;8.742;2023-05-29T00:22:35;5.50;;;3.80;;
14348;SDS011;7258;50.376;8.742;2023-05-29T00:24:39;5.23;;;4.17;;
14348;SDS011;7258;50.376;8.742;2023-05-29T00:26:42;5.27;;;4.37;;
14348;SDS011;7258;50.376;8.742;2023-05-29T00:28:45;6.07;;;4.27;;
14348;SDS011;7258;50.376;8.742;2023-05-29T00:30:48;6.37;;;4.30;;
14348;SDS011;7258;50.376;8.742;2023-05-29T00:32:53;4.03;;;3.63;;
14348;SDS011;7258;50.376;8.742;2023-05-29T00:34:56;5.13;;;4.43;;
14348;SDS011;7258;50.376;8.742;2023-05-29T00:36:59;7.77;;;4.13;;
14348;SDS011;7258;50.376;8.742;2023-05-29T00:39:03;7.53;;;3.97;;
14348;SDS011;7258;50.376;8.742;2023-05-29T00:41:06;5.73;;;3.97;;
14348;SDS011;7258;50.376;8.742;2023-05-29T00:43:09;7.60;;;4.60;;
14348;SDS011;7258;50.376;8.742;2023-05-29T00:45:12;7.20;;;4.37;;
14348;SDS011;7258;50.376;8.742;2023-05-29T00:47:15;5.53;;;4.10;;
14348;SDS011;7258;50.376;8.742;2023-05-29T00:49:20;4.97;;;4.43;;
14348;SDS011;7258;50.376;8.742;2023-05-29T00:51:25;4.57;;;3.83;;
14348;SDS011;7258;50.376;8.742;2023-05-29T00:53:29;5.10;;;4.30;;
14348;SDS011;7258;50.376;8.742;2023-05-29T00:55:32;4.23;;;3.80;;
14348;SDS011;7258;50.376;8.742;2023-05-29T00:57:36;5.07;;;4.30;;
14348;SDS011;7258;50.376;8.742;2023-05-29T00:59:40;8.03;;;4.37;;
14348;SDS011;7258;50.376;8.742;2023-05-29T01:01:44;6.33;;;4.23;;
14348;SDS011;7258;50.376;8.742;2023-05-29T01:03:47;6.73;;;4.50;;
14348;SDS011;7258;50.376;8.742;2023-05-29T01:05:52;5.83;;;4.30;;
14348;SDS011;7258;50.376;8.742;2023-05-29T01:07:55;6.47;;;4.53;;
14348;SDS011;7258;50.376;8.742;2023-05-29T01:09:58;5.50;;;4.17;;
14348;SDS011;7258;50.376;8.742;2023-05-29T01:12:03;4.60;;;4.13;;
14348;SDS011;7258;50.376;8.742;2023-05-29T01:14:19;6.97;;;4.20;;
14348;SDS011;7258;50.376;8.742;2023-05-29T01:16:30;5.93;;;4.43;;
14348;SDS011;7258;50.376;8.742;2023-05-29T01:18:39;5.57;;;4.10;;
14348;SDS011;7258;50.376;8.742;2023-05-29T01:20:47;5.73;;;4.17;;
14348;SDS011;7258;50.376;8.742;2023-05-29T01:23:13;4.50;;;4.10;;
14348;SDS011;7258;50.376;8.742;2023-05-29T01:25:56;4.50;;;4.10;;
14348;SDS011;7258;50.376;8.742;2023-05-29T01:28:10;6.03;;;4.23;;
14348;SDS011;7258;50.376;8.742;2023-05-29T01:30:15;4.23;;;3.83;;
14348;SDS011;7258;50.376;8.742;2023-05-29T01:32:19;5.90;;;4.17;;
14348;SDS011;7258;50.376;8.742;2023-05-29T01:34:23;6.07;;;4.23;;
14348;SDS011;7258;50.376;8.742;2023-05-29T01:36:26;4.37;;;3.97;;
14348;SDS011;7258;50.376;8.742;2023-05-29T01:38:30;6.23;;;4.30;;
14348;SDS011;7258;50.376;8.742;2023-05-29T01:40:33;5.87;;;4.10;;
14348;SDS011;7258;50.376;8.742;2023-05-29T01:42:36;6.37;;;4.70;;
14348;SDS011;7258;50.376;8.742;2023-05-29T01:44:41;5.70;;;4.30;;
14348;SDS011;7258;50.376;8.742;2023-05-29T01:46:45;7.13;;;4.17;;
14348;SDS011;7258;50.376;8.742;2023-05-29T01:48:49;5.70;;;4.17;;
14348;SDS011;7258;50.376;8.742;2023-05-29T01:50:53;6.10;;;4.40;;
14348;SDS011;7258;50.376;8.742;2023-05-29T01:53:00;4.70;;;4.20;;
14348;SDS011;7258;50.376;8.742;2023-05-29T01:55:03;6.73;;;4.10;;
14348;SDS011;7258;50.376;8.742;2023-05-29T01:57:06;6.27;;;4.13;;
14348;SDS011;7258;50.376;8.742;2023-05-29T01:59:09;4.17;;;3.70;;
14348;SDS011;7258;50.376;8.742;2023-05-29T02:01:15;8.73;;;4.57;;
14348;SDS011;7258;50.376;8.742;2023-05-29T02:03:19;7.97;;;4.03;;
14348;SDS011;7258;50.376;8.742;2023-05-29T02:05:22;6.03;;;4.20;;
14348;SDS011;7258;50.376;8.742;2023-05-29T02:07:25;7.60;;;4.40;;
14348;SDS011;7258;50.376;8.742;2023-05-29T02:09:28;8.53;;;4.77;;
14348;SDS011;7258;50.376;8.742;2023-05-29T02:11:31;4.63;;;3.80;;
14348;SDS011;7258;50.376;8.742;2023-05-29T02:13:34;7.27;;;4.57;;
14348;SDS011;7258;50.376;8.742;2023-05-29T02:15:37;5.10;;;4.23;;
14348;SDS011;7258;50.376;8.742;2023-05-29T02:17:42;6.70;;;4.00;;
14348;SDS011;7258;50.376;8.742;2023-05-29T02:19:45;6.17;;;4.50;;
14348;SDS011;7258;50.376;8.742;2023-05-29T02:21:48;6.23;;;4.50;;
14348;SDS011;7258;50.376;8.742;2023-05-29T02:23:51;6.27;;;4.40;;
14348;SDS011;7258;50.376;8.742;2023-05-29T02:25:54;7.27;;;4.33;;
14348;SDS011;7258;50.376;8.742;2023-05-29T02:27:57;6.37;;;4.77;;
14348;SDS011;7258;50.376;8.742;2023-05-29T02:30:00;4.83;;;3.80;;
14348;SDS011;7258;50.376;8.742;2023-05-29T02:32:03;5.40;;;4.40;;
14348;SDS011;7258;50.376;8.742;2023-05-29T02:34:08;5.67;;;4.63;;
14348;SDS011;7258;50.376;8.742;2023-05-29T02:36:11;8.03;;;4.67;;
14348;SDS011;7258;50.376;8.742;2023-05-29T02:38:14;6.40;;;4.63;;
14348;SDS011;7258;50.376;8.742;2023-05-29T02:40:17;8.20;;;4.60;;
14348;SDS011;7258;50.376;8.742;2023-05-29T02:42:21;6.07;;;4.57;;
14348;SDS011;7258;50.376;8.742;2023-05-29T02:44:23;7.63;;;4.40;;
14348;SDS011;7258;50.376;8.742;2023-05-29T02:46:27;8.33;;;5.13;;
14348;SDS011;7258;50.376;8.742;2023-05-29T02:48:30;6.00;;;4.70;;
14348;SDS011;7258;50.376;8.742;2023-05-29T02:50:34;7.40;;;4.87;;
14348;SDS011;7258;50.376;8.742;2023-05-29T02:52:37;7.37;;;4.57;;
14348;SDS011;7258;50.376;8.742;2023-05-29T02:54:41;9.60;;;4.97;;
14348;SDS011;7258;50.376;8.742;2023-05-29T02:56:43;8.07;;;4.73;;
14348;SDS011;7258;50.376;8.742;2023-05-29T02:58:46;9.40;;;5.40;;
14348;SDS011;7258;50.376;8.742;2023-05-29T03:00:49;6.03;;;4.43;;
14348;SDS011;7258;50.376;8.742;2023-05-29T03:02:53;9.07;;;5.20;;
14348;SDS011;7258;50.376;8.742;2023-05-29T03:04:57;9.40;;;4.93;;
14348;SDS011;7258;50.376;8.742;2023-05-29T03:07:01;8.60;;;4.97;;
14348;SDS011;7258;50.376;8.742;2023-05-29T03:09:04;7.80;;;4.73;;
14348;SDS011;7258;50.376;8.742;2023-05-29T03:11:07;7.70;;;4.93;;
14348;SDS011;7258;50.376;8.742;2023-05-29T03:13:12;8.27;;;5.07;;
14348;SDS011;7258;50.376;8.742;2023-05-29T03:15:15;8.67;;;5.03;;
14348;SDS011;7258;50.376;8.742;2023-05-29T03:17:21;6.90;;;5.37;;
14348;SDS011;7258;50.376;8.742;2023-05-29T03:19:24;8.67;;;5.33;;
14348;SDS011;7258;50.376;8.742;2023-05-29T03:21:27;7.83;;;5.67;;
14348;SDS011;7258;50.376;8.742;2023-05-29T03:23:31;9.23;;;5.23;;
14348;SDS011;7258;50.376;8.742;2023-05-29T03:25:34;8.90;;;5.17;;
14348;SDS011;7258;50.376;8.742;2023-05-29T03:27:37;9.10;;;5.37;;
14348;SDS011;7258;50.376;8.742;2023-05-29T03:29:40;6.83;;;5.53;;
14348;SDS011;7258;50.376;8.742;2023-05-29T03:31:43;8.20;;;5.50;;
14348;SDS011;7258;50.376;8.742;2023-05-29T03:33:48;9.20;;;5.33;;
14348;SDS011;7258;50.376;8.742;2023-05-29T03:35:51;7.27;;;5.40;;
14348;SDS011;7258;50.376;8.742;2023-05-29T03:37:54;7.33;;;5.53;;
14348;SDS011;7258;50.376;8.742;2023-05-29T03:39:58;8.33;;;5.77;;
14348;SDS011;7258;50.376;8.742;2023-05-29T03:42:01;7.07;;;5.37;;
14348;SDS011;7258;50.376;8.742;2023-05-29T03:44:07;6.83;;;5.03;;
14348;SDS011;7258;50.376;8.742;2023-05-29T03:46:11;8.10;;;5.70;;
14348;SDS011;7258;50.376;8.742;2023-05-29T03:48:13;8.20;;;5.63;;
14348;SDS011;7258;50.376;8.742;2023-05-29T03:50:16;7.97;;;5.80;;
14348;SDS011;7258;50.376;8.742;2023-05-29T03:52:19;7.83;;;5.43;;
14348;SDS011;7258;50.376;8.742;2023-05-29T03:54:23;7.97;;;5.80;;
14348;SDS011;7258;50.376;8.742;2023-05-29T03:56:28;7.97;;;5.97;;
14348;SDS011;7258;50.376;8.742;2023-05-29T03:58:31;7.27;;;5.90;;
14348;SDS011;7258;50.376;8.742;2023-05-29T04:00:34;8.90;;;5.77;;
14348;SDS011;7258;50.376;8.742;2023-05-29T04:02:37;8.67;;;5.70;;
14348;SDS011;7258;50.376;8.742;2023-05-29T04:04:41;9.37;;;5.90;;
14348;SDS011;7258;50.376;8.742;2023-05-29T04:06:44;9.77;;;5.63;;
14348;SDS011;7258;50.376;8.742;2023-05-29T04:08:47;9.33;;;5.90;;
14348;SDS011;7258;50.376;8.742;2023-05-29T04:10:50;8.37;;;5.67;;
14348;SDS011;7258;50.376;8.742;2023-05-29T04:12:56;9.20;;;5.73;;
14348;SDS011;7258;50.376;8.742;2023-05-29T04:14:59;7.40;;;5.43;;
14348;SDS011;7258;50.376;8.742;2023-05-29T04:17:03;9.73;;;5.70;;
14348;SDS011;7258;50.376;8.742;2023-05-29T04:19:06;8.57;;;5.93;;
14348;SDS011;7258;50.376;8.742;2023-05-29T04:21:09;7.20;;;5.67;;
14348;SDS011;7258;50.376;8.742;2023-05-29T04:23:12;9.50;;;6.30;;
14348;SDS011;7258;50.376;8.742;2023-05-29T04:25:15;10.10;;;6.57;;
14348;SDS011;7258;50.376;8.742;2023-05-29T04:27:19;6.80;;;5.67;;
14348;SDS011;7258;50.376;8.742;2023-05-29T04:29:23;8.87;;;5.50;;
14348;SDS011;7258;50.376;8.742;2023-05-29T04:31:26;11.20;;;6.03;;
14348;SDS011;7258;50.376;8.742;2023-05-29T04:33:29;7.10;;;5.47;;
14348;SDS011;7258;50.376;8.742;2023-05-29T04:35:32;9.53;;;5.93;;
14348;SDS011;7258;50.376;8.742;2023-05-29T04:37:36;13.00;;;6.50;;
14348;SDS011;7258;50.376;8.742;2023-05-29T04:39:39;10.67;;;5.67;;
14348;SDS011;7258;50.376;8.742;2023-05-29T04:41:42;7.90;;;5.80;;
14348;SDS011;7258;50.376;8.742;2023-05-29T04:43:45;10.07;;;6.30;;
14348;SDS011;7258;50.376;8.742;2023-05-29T04:45:51;7.57;;;6.17;;
14348;SDS011;7258;50.376;8.742;2023-05-29T04:47:54;8.23;;;5.27;;
14348;SDS011;7258;50.376;8.742;2023-05-29T04:49:57;10.10;;;6.07;;
14348;SDS011;7258;50.376;8.742;2023-05-29T04:52:00;10.30;;;6.27;;
14348;SDS011;7258;50.376;8.742;2023-05-29T04:54:04;11.20;;;6.03;;
14348;SDS011;7258;50.376;8.742;2023-05-29T04:56:07;8.00;;;6.00;;
14348;SDS011;7258;50.376;8.742;2023-05-29T04:58:10;8.93;;;6.40;;
14348;SDS011;7258;50.376;8.742;2023-05-29T05:00:14;8.50;;;5.93;;
14348;SDS011;7258;50.376;8.742;2023-05-29T05:02:20;8.20;;;5.70;;
14348;SDS011;7258;50.376;8.742;2023-05-29T05:04:23;12.50;;;6.27;;
14348;SDS011;7258;50.376;8.742;2023-05-29T05:06:26;8.83;;;5.83;;
14348;SDS011;7258;50.376;8.742;2023-05-29T05:08:30;8.50;;;6.50;;
14348;SDS011;7258;50.376;8.742;2023-05-29T05:10:34;7.93;;;5.70;;
14348;SDS011;7258;50.376;8.742;2023-05-29T05:12:37;11.70;;;5.73;;
14348;SDS011;7258;50.376;8.742;2023-05-29T05:14:40;10.17;;;6.03;;
14348;SDS011;7258;50.376;8.742;2023-05-29T05:16:43;10.50;;;5.73;;
14348;SDS011;7258;50.376;8.742;2023-05-29T05:18:47;6.70;;;5.20;;
14348;SDS011;7258;50.376;8.742;2023-05-29T05:20:50;8.97;;;5.60;;
14348;SDS011;7258;50.376;8.742;2023-05-29T05:22:54;8.87;;;6.00;;
14348;SDS011;7258;50.376;8.742;2023-05-29T05:24:58;8.10;;;5.53;;
14348;SDS011;7258;50.376;8.742;2023-05-29T05:27:01;8.83;;;5.47;;
14348;SDS011;7258;50.376;8.742;2023-05-29T05:29:06;6.73;;;5.70;;
14348;SDS011;7258;50.376;8.742;2023-05-29T05:31:09;9.35;;;5.75;;
14348;SDS011;7258;50.376;8.742;2023-05-29T05:33:12;8.27;;;5.55;;
14348;SDS011;7258;50.376;8.742;2023-05-29T05:35:17;9.48;;;5.82;;
14348;SDS011;7258;50.376;8.742;2023-05-29T05:37:21;9.88;;;5.82;;
14348;SDS011;7258;50.376;8.742;2023-05-29T05:39:24;6.43;;;4.97;;
14348;SDS011;7258;50.376;8.742;2023-05-29T05:41:27;7.32;;;5.18;;
14348;SDS011;7258;50.376;8.742;2023-05-29T05:43:31;9.70;;;5.90;;
14348;SDS011;7258;50.376;8.742;2023-05-29T05:45:34;8.90;;;5.35;;
14348;SDS011;7258;50.376;8.742;2023-05-29T05:47:39;8.02;;;5.20;;
14348;SDS011;7258;50.376;8.742;2023-05-29T05:49:42;6.03;;;5.28;;
14348;SDS011;7258;50.376;8.742;2023-05-29T05:51:47;8.70;;;5.70;;
14348;SDS011;7258;50.376;8.742;2023-05-29T05:53:51;8.65;;;5.60;;
14348;SDS011;7258;50.376;8.742;2023-05-29T05:55:54;8.23;;;5.80;;
14348;SDS011;7258;50.376;8.742;2023-05-29T05:57:57;6.75;;;4.40;;
14348;SDS011;7258;50.376;8.742;2023-05-29T06:00:00;9.52;;;5.68;;
14348;SDS011;7258;50.376;8.742;2023-05-29T06:02:06;7.53;;;5.00;;
14348;SDS011;7258;50.376;8.742;2023-05-29T06:04:10;6.25;;;4.85;;
14348;SDS011;7258;50.376;8.742;2023-05-29T06:06:13;7.97;;;5.38;;
14348;SDS011;7258;50.376;8.742;2023-05-29T06:08:17;7.53;;;5.30;;
14348;SDS011;7258;50.376;8.742;2023-05-29T06:10:20;9.90;;;5.40;;
14348;SDS011;7258;50.376;8.742;2023-05-29T06:12:23;9.60;;;5.00;;
14348;SDS011;7258;50.376;8.742;2023-05-29T06:14:27;8.88;;;5.05;;
14348;SDS011;7258;50.376;8.742;2023-05-29T06:16:29;7.47;;;5.03;;
14348;SDS011;7258;50.376;8.742;2023-05-29T06:18:32;9.73;;;4.95;;
14348;SDS011;7258;50.376;8.742;2023-05-29T06:20:37;6.10;;;4.70;;
14348;SDS011;7258;50.376;8.742;2023-05-29T06:22:41;7.60;;;4.68;;
14348;SDS011;7258;50.376;8.742;2023-05-29T06:24:46;8.75;;;5.03;;
14348;SDS011;7258;50.376;8.742;2023-05-29T06:26:49;6.35;;;4.60;;
14348;SDS011;7258;50.376;8.742;2023-05-29T06:28:52;5.97;;;4.07;;
14348;SDS011;7258;50.376;8.742;2023-05-29T06:30:56;8.80;;;4.68;;
14348;SDS011;7258;50.376;8.742;2023-05-29T06:32:59;7.65;;;4.32;;
14348;SDS011;7258;50.376;8.742;2023-05-29T06:35:02;6.35;;;4.80;;
14348;SDS011;7258;50.376;8.742;2023-05-29T06:37:07;7.82;;;4.80;;
14348;SDS011;7258;50.376;8.742;2023-05-29T06:39:10;10.02;;;4.50;;
14348;SDS011;7258;50.376;8.742;2023-05-29T06:41:14;7.45;;;4.50;;
14348;SDS011;7258;50.376;8.742;2023-05-29T06:43:17;9.57;;;4.55;;
14348;SDS011;7258;50.376;8.742;2023-05-29T06:45:20;9.85;;;4.82;;
14348;SDS011;7258;50.376;8.742;2023-05-29T06:47:23;8.63;;;4.20;;
14348;SDS011;7258;50.376;8.742;2023-05-29T06:49:27;7.25;;;4.35;;
14348;SDS011;7258;50.376;8.742;2023-05-29T06:51:30;9.82;;;4.30;;
14348;SDS011;7258;50.376;8.742;2023-05-29T06:53:34;7.72;;;4.45;;
14348;SDS011;7258;50.376;8.742;2023-05-29T06:55:37;7.97;;;4.63;;
14348;SDS011;7258;50.376;8.742;2023-05-29T06:57:48;8.75;;;4.40;;
14348;SDS011;7258;50.376;8.742;2023-05-29T07:02:50;6.32;;;4.13;;
14348;SDS011;7258;50.376;8.742;2023-05-29T07:04:53;7.18;;;4.20;;
14348;SDS011;7258;50.376;8.742;2023-05-29T07:06:56;5.65;;;4.03;;
14348;SDS011;7258;50.376;8.742;2023-05-29T07:08:59;7.10;;;4.43;;
14348;SDS011;7258;50.376;8.742;2023-05-29T07:11:02;7.18;;;4.43;;
14348;SDS011;7258;50.376;8.742;2023-05-29T07:13:06;8.15;;;4.60;;
14348;SDS011;7258;50.376;8.742;2023-05-29T07:15:10;6.43;;;4.32;;
14348;SDS011;7258;50.376;8.742;2023-05-29T07:17:13;4.50;;;4.05;;
14348;SDS011;7258;50.376;8.742;2023-05-29T07:19:16;7.82;;;4.97;;
14348;SDS011;7258;50.376;8.742;2023-05-29T07:21:26;8.20;;;4.03;;
14348;SDS011;7258;50.376;8.742;2023-05-29T07:23:29;9.27;;;4.10;;
14348;SDS011;7258;50.376;8.742;2023-05-29T07:25:32;6.25;;;4.10;;
14348;SDS011;7258;50.376;8.742;2023-05-29T07:27:39;6.95;;;4.07;;
14348;SDS011;7258;50.376;8.742;2023-05-29T07:29:43;6.72;;;4.20;;
14348;SDS011;7258;50.376;8.742;2023-05-29T07:31:46;6.03;;;4.53;;
14348;SDS011;7258;50.376;8.742;2023-05-29T07:33:49;5.03;;;4.35;;
14348;SDS011;7258;50.376;8.742;2023-05-29T07:35:52;5.78;;;4.03;;
14348;SDS011;7258;50.376;8.742;2023-05-29T07:37:55;8.02;;;4.38;;
14348;SDS011;7258;50.376;8.742;2023-05-29T07:39:58;5.32;;;4.60;;
14348;SDS011;7258;50.376;8.742;2023-05-29T07:42:01;5.43;;;4.18;;
14348;SDS011;7258;50.376;8.742;2023-05-29T07:44:04;4.90;;;4.13;;
14348;SDS011;7258;50.376;8.742;2023-05-29T07:46:09;8.48;;;4.35;;
14348;SDS011;7258;50.376;8.742;2023-05-29T07:48:12;6.95;;;4.15;;
14348;SDS011;7258;50.376;8.742;2023-05-29T07:50:14;7.40;;;4.45;;
14348;SDS011;7258;50.376;8.742;2023-05-29T07:52:17;9.65;;;4.40;;
14348;SDS011;7258;50.376;8.742;2023-05-29T07:54:21;5.30;;;3.90;;
14348;SDS011;7258;50.376;8.742;2023-05-29T07:56:24;7.32;;;4.13;;
14348;SDS011;7258;50.376;8.742;2023-05-29T07:58:27;6.88;;;4.72;;
14348;SDS011;7258;50.376;8.742;2023-05-29T08:00:34;5.93;;;3.70;;
14348;SDS011;7258;50.376;8.742;2023-05-29T08:02:39;6.60;;;4.60;;
14348;SDS011;7258;50.376;8.742;2023-05-29T08:04:43;6.28;;;4.28;;
14348;SDS011;7258;50.376;8.742;2023-05-29T08:06:47;7.55;;;4.38;;
14348;SDS011;7258;50.376;8.742;2023-05-29T08:08:50;6.00;;;3.90;;
14348;SDS011;7258;50.376;8.742;2023-05-29T08:10:53;5.53;;;4.18;;
14348;SDS011;7258;50.376;8.742;2023-05-29T08:12:57;4.93;;;3.97;;
14348;SDS011;7258;50.376;8.742;2023-05-29T08:15:00;5.88;;;4.18;;
14348;SDS011;7258;50.376;8.742;2023-05-29T08:17:03;5.63;;;4.07;;
14348;SDS011;7258;50.376;8.742;2023-05-29T08:19:08;6.88;;;4.15;;
14348;SDS011;7258;50.376;8.742;2023-05-29T08:21:11;6.13;;;4.05;;
14348;SDS011;7258;50.376;8.742;2023-05-29T08:23:17;7.35;;;4.57;;
14348;SDS011;7258;50.376;8.742;2023-05-29T08:25:20;8.93;;;3.90;;
14348;SDS011;7258;50.376;8.742;2023-05-29T08:27:23;5.55;;;3.97;;
14348;SDS011;7258;50.376;8.742;2023-05-29T08:29:26;5.97;;;4.00;;
14348;SDS011;7258;50.376;8.742;2023-05-29T08:31:29;5.00;;;4.35;;
14348;SDS011;7258;50.376;8.742;2023-05-29T08:33:32;8.18;;;4.25;;
14348;SDS011;7258;50.376;8.742;2023-05-29T08:35:37;4.15;;;3.75;;
14348;SDS011;7258;50.376;8.742;2023-05-29T08:37:39;7.45;;;4.13;;
14348;SDS011;7258;50.376;8.742;2023-05-29T08:39:42;7.18;;;4.32;;
14348;SDS011;7258;50.376;8.742;2023-05-29T08:41:47;9.43;;;4.55;;
14348;SDS011;7258;50.376;8.742;2023-05-29T08:44:01;5.72;;;4.03;;
14348;SDS011;7258;50.376;8.742;2023-05-29T08:46:07;8.93;;;4.20;;
14348;SDS011;7258;50.376;8.742;2023-05-29T08:48:10;6.85;;;4.00;;
14348;SDS011;7258;50.376;8.742;2023-05-29T08:50:14;5.88;;;3.97;;
14348;SDS011;7258;50.376;8.742;2023-05-29T08:52:21;5.70;;;3.90;;
14348;SDS011;7258;50.376;8.742;2023-05-29T08:54:26;7.72;;;4.07;;
14348;SDS011;7258;50.376;8.742;2023-05-29T08:56:29;6.47;;;3.83;;
14348;SDS011;7258;50.376;8.742;2023-05-29T08:58:35;4.75;;;4.03;;
14348;SDS011;7258;50.376;8.742;2023-05-29T09:00:38;9.25;;;4.00;;
14348;SDS011;7258;50.376;8.742;2023-05-29T09:02:42;7.30;;;4.05;;
14348;SDS011;7258;50.376;8.742;2023-05-29T09:04:45;5.28;;;3.72;;
14348;SDS011;7258;50.376;8.742;2023-05-29T09:06:50;6.68;;;4.00;;
14348;SDS011;7258;50.376;8.742;2023-05-29T09:08:58;8.43;;;3.85;;
14348;SDS011;7258;50.376;8.742;2023-05-29T09:11:01;4.50;;;3.72;;
14348;SDS011;7258;50.376;8.742;2023-05-29T09:13:03;5.90;;;4.10;;
14348;SDS011;7258;50.376;8.742;2023-05-29T09:15:08;6.88;;;4.43;;
14348;SDS011;7258;50.376;8.742;2023-05-29T09:17:20;10.38;;;3.88;;
14348;SDS011;7258;50.376;8.742;2023-05-29T09:19:22;7.68;;;3.97;;
14348;SDS011;7258;50.376;8.742;2023-05-29T09:21:27;6.82;;;3.95;;
14348;SDS011;7258;50.376;8.742;2023-05-29T09:23:34;4.90;;;3.15;;
14348;SDS011;7258;50.376;8.742;2023-05-29T09:25:41;6.57;;;3.47;;
14348;SDS011;7258;50.376;8.742;2023-05-29T09:27:44;9.07;;;4.18;;
14348;SDS011;7258;50.376;8.742;2023-05-29T09:29:47;6.80;;;4.07;;
14348;SDS011;7258;50.376;8.742;2023-05-29T09:31:50;6.43;;;3.60;;
14348;SDS011;7258;50.376;8.742;2023-05-29T09:33:54;6.70;;;3.97;;
14348;SDS011;7258;50.376;8.742;2023-05-29T09:35:56;8.57;;;4.22;;
14348;SDS011;7258;50.376;8.742;2023-05-29T09:38:02;4.18;;;3.60;;
14348;SDS011;7258;50.376;8.742;2023-05-29T09:40:06;8.60;;;3.78;;
14348;SDS011;7258;50.376;8.742;2023-05-29T09:42:11;7.00;;;3.83;;
14348;SDS011;7258;50.376;8.742;2023-05-29T09:44:14;6.00;;;3.50;;
14348;SDS011;7258;50.376;8.742;2023-05-29T09:46:17;5.88;;;3.67;;
14348;SDS011;7258;50.376;8.742;2023-05-29T09:48:21;6.32;;;3.85;;
14348;SDS011;7258;50.376;8.742;2023-05-29T09:50:25;5.15;;;3.70;;
14348;SDS011;7258;50.376;8.742;2023-05-29T09:52:29;5.35;;;3.75;;
14348;SDS011;7258;50.376;8.742;2023-05-29T09:54:34;5.60;;;3.58;;
14348;SDS011;7258;50.376;8.742;2023-05-29T09:56:37;5.53;;;3.60;;
14348;SDS011;7258;50.376;8.742;2023-05-29T09:58:44;8.35;;;3.40;;
14348;SDS011;7258;50.376;8.742;2023-05-29T10:00:48;6.75;;;3.58;;
14348;SDS011;7258;50.376;8.742;2023-05-29T10:02:54;5.28;;;3.63;;
14348;SDS011;7258;50.376;8.742;2023-05-29T10:04:58;5.25;;;3.50;;
14348;SDS011;7258;50.376;8.742;2023-05-29T10:07:04;6.28;;;3.97;;
14348;SDS011;7258;50.376;8.742;2023-05-29T10:09:11;5.40;;;3.72;;
14348;SDS011;7258;50.376;8.742;2023-05-29T10:11:16;4.45;;;3.50;;
14348;SDS011;7258;50.376;8.742;2023-05-29T10:13:26;4.93;;;3.30;;
14348;SDS011;7258;50.376;8.742;2023-05-29T10:15:34;5.22;;;3.42;;
14348;SDS011;7258;50.376;8.742;2023-05-29T10:17:38;5.28;;;3.72;;
14348;SDS011;7258;50.376;8.742;2023-05-29T10:19:47;4.57;;;3.25;;
14348;SDS011;7258;50.376;8.742;2023-05-29T10:21:52;4.30;;;3.17;;
14348;SDS011;7258;50.376;8.742;2023-05-29T10:23:57;4.90;;;3.28;;
14348;SDS011;7258;50.376;8.742;2023-05-29T10:26:02;5.53;;;3.20;;
14348;SDS011;7258;50.376;8.742;2023-05-29T10:28:12;4.07;;;3.20;;
14348;SDS011;7258;50.376;8.742;2023-05-29T10:30:21;3.60;;;3.00;;
14348;SDS011;7258;50.376;8.742;2023-05-29T10:32:32;6.65;;;3.63;;
14348;SDS011;7258;50.376;8.742;2023-05-29T10:34:50;5.45;;;3.67;;
14348;SDS011;7258;50.376;8.742;2023-05-29T10:37:04;4.53;;;3.10;;
14348;SDS011;7258;50.376;8.742;2023-05-29T10:39:11;5.22;;;3.50;;
14348;SDS011;7258;50.376;8.742;2023-05-29T10:41:30;6.15;;;3.90;;
14348;SDS011;7258;50.376;8.742;2023-05-29T10:43:40;4.07;;;2.92;;
14348;SDS011;7258;50.376;8.742;2023-05-29T10:45:48;5.88;;;3.08;;
14348;SDS011;7258;50.376;8.742;2023-05-29T10:48:03;7.47;;;3.42;;
14348;SDS011;7258;50.376;8.742;2023-05-29T10:50:42;4.30;;;3.20;;
14348;SDS011;7258;50.376;8.742;2023-05-29T10:52:47;6.18;;;3.30;;
14348;SDS011;7258;50.376;8.742;2023-05-29T10:54:50;4.57;;;3.30;;
14348;SDS011;7258;50.376;8.742;2023-05-29T10:56:56;3.92;;;3.05;;
14348;SDS011;7258;50.376;8.742;2023-05-29T10:59:00;5.28;;;3.30;;
14348;SDS011;7258;50.376;8.742;2023-05-29T11:01:07;4.28;;;3.35;;
14348;SDS011;7258;50.376;8.742;2023-05-29T11:03:12;4.13;;;3.40;;
14348;SDS011;7258;50.376;8.742;2023-05-29T11:05:24;4.07;;;3.50;;
14348;SDS011;7258;50.376;8.742;2023-05-29T11:07:33;5.18;;;3.97;;
14348;SDS011;7258;50.376;8.742;2023-05-29T11:09:37;5.22;;;3.65;;
14348;SDS011;7258;50.376;8.742;2023-05-29T11:11:41;4.57;;;3.28;;
14348;SDS011;7258;50.376;8.742;2023-05-29T11:13:51;4.72;;;3.30;;
14348;SDS011;7258;50.376;8.742;2023-05-29T11:16:04;5.53;;;3.10;;
14348;SDS011;7258;50.376;8.742;2023-05-29T11:18:08;7.10;;;3.08;;
14348;SDS011;7258;50.376;8.742;2023-05-29T11:20:20;3.65;;;2.92;;
14348;SDS011;7258;50.376;8.742;2023-05-29T11:22:51;5.15;;;3.20;;
14348;SDS011;7258;50.376;8.742;2023-05-29T11:25:02;5.35;;;3.25;;
14348;SDS011;7258;50.376;8.742;2023-05-29T11:27:07;6.75;;;3.20;;
14348;SDS011;7258;50.376;8.742;2023-05-29T11:29:10;10.52;;;3.03;;
14348;SDS011;7258;50.376;8.742;2023-05-29T11:31:14;6.43;;;3.13;;
14348;SDS011;7258;50.376;8.742;2023-05-29T11:33:19;5.38;;;3.35;;
14348;SDS011;7258;50.376;8.742;2023-05-29T11:35:27;3.70;;;3.25;;
14348;SDS011;7258;50.376;8.742;2023-05-29T11:37:35;7.18;;;5.28;;
14348;SDS011;7258;50.376;8.742;2023-05-29T11:39:38;7.10;;;6.40;;
14348;SDS011;7258;50.376;8.742;2023-05-29T11:41:43;5.03;;;3.17;;
14348;SDS011;7258;50.376;8.742;2023-05-29T11:43:55;4.60;;;3.55;;
14348;SDS011;7258;50.376;8.742;2023-05-29T11:45:59;3.95;;;3.38;;
14348;SDS011;7258;50.376;8.742;2023-05-29T11:48:02;4.47;;;3.20;;
14348;SDS011;7258;50.376;8.742;2023-05-29T11:50:17;4.50;;;3.40;;
14348;SDS011;7258;50.376;8.742;2023-05-29T11:52:22;9.90;;;3.42;;
14348;SDS011;7258;50.376;8.742;2023-05-29T11:54:25;4.97;;;3.13;;
14348;SDS011;7258;50.376;8.742;2023-05-29T11:56:29;4.35;;;3.35;;
14348;SDS011;7258;50.376;8.742;2023-05-29T11:58:32;6.57;;;3.55;;
14348;SDS011;7258;50.376;8.742;2023-05-29T12:00:35;6.25;;;3.35;;
14348;SDS011;7258;50.376;8.742;2023-05-29T12:02:39;4.57;;;3.28;;
14348;SDS011;7258;50.376;8.742;2023-05-29T12:04:43;4.10;;;3.03;;
14348;SDS011;7258;50.376;8.742;2023-05-29T12:07:01;5.82;;;3.42;;
14348;SDS011;7258;50.376;8.742;2023-05-29T12:09:05;6.90;;;3.35;;
14348;SDS011;7258;50.376;8.742;2023-05-29T12:11:08;3.78;;;3.45;;
14348;SDS011;7258;50.376;8.742;2023-05-29T12:13:11;4.25;;;2.90;;
14348;SDS011;7258;50.376;8.742;2023-05-29T12:15:16;4.43;;;3.30;;
14348;SDS011;7258;50.376;8.742;2023-05-29T12:17:19;6.40;;;3.13;;
14348;SDS011;7258;50.376;8.742;2023-05-29T12:19:23;7.00;;;3.50;;
14348;SDS011;7258;50.376;8.742;2023-05-29T12:21:26;5.63;;;3.67;;
14348;SDS011;7258;50.376;8.742;2023-05-29T12:23:30;8.48;;;3.92;;
14348;SDS011;7258;50.376;8.742;2023-05-29T12:25:35;5.35;;;3.67;;
14348;SDS011;7258;50.376;8.742;2023-05-29T12:27:39;6.43;;;3.53;;
14348;SDS011;7258;50.376;8.742;2023-05-29T12:29:47;5.68;;;4.47;;
14348;SDS011;7258;50.376;8.742;2023-05-29T12:31:57;7.30;;;3.28;;
14348;SDS011;7258;50.376;8.742;2023-05-29T12:34:00;8.02;;;3.55;;
14348;SDS011;7258;50.376;8.742;2023-05-29T12:36:05;5.32;;;3.15;;
14348;SDS011;7258;50.376;8.742;2023-05-29T12:38:11;5.70;;;3.70;;
14348;SDS011;7258;50.376;8.742;2023-05-29T12:40:14;4.78;;;3.70;;
14348;SDS011;7258;50.376;8.742;2023-05-29T12:42:19;5.05;;;3.15;;
14348;SDS011;7258;50.376;8.742;2023-05-29T12:44:26;6.68;;;4.10;;
14348;SDS011;7258;50.376;8.742;2023-05-29T12:46:35;4.88;;;3.70;;